createdAt,value
2024-04-18T00:01:58.052Z,14.50
2024-04-18T00:04:25.145Z,14.00
2024-04-18T00:06:59.650Z,16.60
2024-04-18T00:09:26.847Z,12.10
2024-04-18T00:11:53.919Z,15.60
2024-04-18T00:14:21.381Z,17.90
2024-04-18T00:16:48.385Z,16.10
2024-04-18T00:19:15.585Z,12.50
2024-04-18T00:21:56.143Z,14.60
2024-04-18T00:24:26.240Z,14.30
2024-04-18T00:26:53.271Z,20.40
2024-04-18T00:29:20.595Z,13.40
2024-04-18T00:31:48.053Z,13.90
2024-04-18T00:34:33.866Z,17.30
2024-04-18T00:37:00.729Z,13.10
2024-04-18T00:39:27.854Z,14.50
2024-04-18T00:42:01.220Z,13.50
2024-04-18T00:44:30.993Z,12.80
2024-04-18T00:47:14.149Z,14.20
2024-04-18T00:50:01.366Z,13.30
2024-04-18T00:52:38.967Z,13.40
2024-04-18T00:55:07.125Z,14.70
2024-04-18T00:57:34.431Z,19.40
2024-04-18T01:00:01.523Z,11.90
2024-04-18T01:02:30.282Z,13.20
2024-04-18T01:05:16.608Z,16.70
2024-04-18T01:07:43.402Z,12.80
2024-04-18T01:10:22.599Z,13.30
2024-04-18T01:13:00.031Z,14.90
2024-04-18T01:15:45.481Z,14.10
2024-04-18T01:18:12.738Z,15.10
2024-04-18T01:20:39.821Z,16.90
2024-04-18T01:23:07.468Z,16.70
2024-04-18T01:25:43.433Z,16.50
2024-04-18T01:28:10.635Z,14.80
2024-04-18T01:30:57.513Z,14.60
2024-04-18T01:33:26.246Z,14.40
2024-04-18T01:35:53.437Z,16.90
2024-04-18T01:38:20.582Z,16.10
2024-04-18T01:40:47.845Z,14.50
2024-04-18T01:43:33.788Z,15.90
2024-04-18T01:46:19.424Z,15.10
2024-04-18T01:49:01.628Z,14.70
2024-04-18T01:51:47.092Z,18.10
2024-04-18T01:54:32.377Z,15.50
2024-04-18T01:56:59.369Z,14.80
2024-04-18T01:59:46.999Z,16.30
2024-04-18T02:02:13.875Z,15.80
2024-04-18T02:05:01.245Z,16.10
2024-04-18T02:07:43.673Z,17.80
2024-04-18T02:10:11.142Z,15.10
2024-04-18T02:12:57.596Z,15.50
2024-04-18T02:15:43.100Z,14.70
2024-04-18T02:18:17.645Z,15.70
2024-04-18T02:20:44.963Z,16.00
2024-04-18T02:23:23.691Z,16.90
2024-04-18T02:25:50.650Z,15.00
2024-04-18T02:28:17.770Z,13.50
2024-04-18T02:30:44.833Z,15.70
2024-04-18T02:33:12.172Z,15.00
2024-04-18T02:35:45.582Z,13.90
2024-04-18T02:41:06.256Z,14.30
2024-04-18T02:43:50.241Z,16.10
2024-04-18T02:46:17.124Z,13.00
2024-04-18T02:49:04.282Z,12.60
2024-04-18T02:51:31.363Z,14.00
2024-04-18T02:54:13.657Z,14.00
2024-04-18T02:56:41.058Z,15.20
2024-04-18T02:59:11.391Z,13.80
2024-04-18T03:01:50.525Z,15.10
2024-04-18T03:04:17.577Z,14.50
2024-04-18T03:06:46.709Z,17.10
2024-04-18T03:09:14.153Z,16.20
2024-04-18T03:11:53.312Z,14.30
2024-04-18T03:14:39.032Z,15.80
2024-04-18T03:17:06.102Z,16.60
2024-04-18T03:19:53.712Z,14.10
2024-04-18T03:22:26.316Z,16.60
2024-04-18T03:24:58.692Z,20.50
2024-04-18T03:27:28.515Z,16.70
2024-04-18T03:29:55.190Z,16.40
2024-04-18T03:32:34.015Z,19.00
2024-04-18T03:35:01.091Z,15.90
2024-04-18T03:37:28.043Z,18.80
2024-04-18T03:39:55.310Z,16.70
2024-04-18T03:42:22.413Z,16.30
2024-04-18T03:44:52.345Z,17.50
2024-04-18T03:47:19.643Z,16.70
2024-04-18T03:50:06.515Z,18.00
2024-04-18T03:52:39.774Z,17.80
2024-04-18T03:57:53.218Z,18.40
2024-04-18T04:00:42.082Z,17.60
2024-04-18T04:03:10.439Z,16.70
2024-04-18T04:05:37.570Z,14.80
2024-04-18T04:08:06.362Z,17.40
2024-04-18T04:10:39.320Z,15.70
2024-04-18T04:13:06.981Z,16.40
2024-04-18T04:15:43.058Z,19.40
2024-04-18T04:18:10.128Z,18.30
2024-04-18T04:20:43.028Z,16.40
2024-04-18T04:23:10.096Z,16.10
2024-04-18T04:25:55.914Z,18.70
2024-04-18T04:28:22.920Z,16.00
2024-04-18T04:30:50.265Z,14.10
2024-04-18T04:33:17.296Z,14.50
2024-04-18T04:35:44.352Z,12.60
2024-04-18T04:38:11.334Z,13.60
2024-04-18T04:40:38.521Z,12.30
2024-04-18T04:43:05.667Z,12.50
2024-04-18T04:45:32.888Z,11.40
2024-04-18T04:48:07.449Z,11.20
2024-04-18T04:51:02.846Z,12.20
2024-04-18T04:53:32.505Z,11.10
2024-04-18T04:55:59.541Z,9.50
2024-04-18T04:58:26.991Z,11.10
2024-04-18T05:00:55.878Z,10.50
2024-04-18T05:03:38.486Z,10.20
2024-04-18T05:06:24.216Z,8.80
2024-04-18T05:09:10.160Z,8.00
2024-04-18T05:11:37.243Z,7.60
2024-04-18T05:14:25.901Z,13.30
2024-04-18T05:16:53.368Z,11.60
2024-04-18T05:19:21.015Z,8.50
2024-04-18T05:21:48.780Z,9.20
2024-04-18T05:24:34.919Z,8.20
2024-04-18T05:27:01.734Z,8.50
2024-04-18T05:29:46.126Z,9.10
2024-04-18T05:32:12.910Z,8.70
2024-04-18T05:34:59.935Z,7.80
2024-04-18T05:37:26.874Z,8.10
2024-04-18T05:39:54.023Z,12.50
2024-04-18T05:42:20.498Z,6.60
2024-04-18T05:45:08.271Z,8.70
2024-04-18T05:47:54.504Z,9.00
2024-04-18T05:50:20.807Z,7.70
2024-04-18T05:52:48.043Z,6.60
2024-04-18T05:55:20.386Z,5.80
2024-04-18T05:57:46.788Z,7.10
2024-04-18T06:00:32.538Z,6.30
2024-04-18T06:02:59.329Z,6.40
2024-04-18T06:05:26.099Z,6.40
2024-04-18T06:08:11.181Z,9.20
2024-04-18T06:10:38.511Z,8.00
2024-04-18T06:13:20.784Z,7.70
2024-04-18T06:15:49.485Z,7.70
2024-04-18T06:18:16.253Z,7.30
2024-04-18T06:20:45.593Z,8.70
2024-04-18T06:23:12.768Z,7.00
2024-04-18T06:25:39.672Z,8.30
2024-04-18T06:28:07.174Z,9.80
2024-04-18T06:30:33.548Z,9.70
2024-04-18T06:33:00.340Z,8.90
2024-04-18T06:35:26.964Z,8.40
2024-04-18T06:37:53.496Z,9.50
2024-04-18T06:40:24.610Z,8.90
2024-04-18T06:42:51.331Z,7.40
2024-04-18T06:45:19.281Z,7.40
2024-04-18T06:47:45.931Z,7.50
2024-04-18T06:50:12.787Z,8.20
2024-04-18T06:52:39.076Z,9.90
2024-04-18T06:55:05.849Z,8.30
2024-04-18T06:57:41.443Z,8.90
2024-04-18T07:00:11.623Z,7.90
2024-04-18T07:02:38.131Z,11.60
2024-04-18T07:05:36.927Z,8.60
2024-04-18T07:08:21.547Z,7.70
2024-04-18T07:13:28.794Z,7.90
2024-04-18T07:15:55.749Z,7.20
2024-04-18T07:18:41.371Z,7.00
2024-04-18T07:21:08.113Z,8.00
2024-04-18T07:23:37.273Z,6.80
2024-04-18T07:26:04.052Z,8.00
2024-04-18T07:28:30.364Z,5.70
2024-04-18T07:30:56.777Z,8.70
2024-04-18T07:33:23.372Z,6.00
2024-04-18T07:35:57.304Z,4.90
2024-04-18T07:40:51.842Z,5.20
2024-04-18T07:43:18.404Z,6.10
2024-04-18T07:45:45.356Z,5.20
2024-04-18T07:48:12.451Z,4.90
2024-04-18T07:50:38.786Z,6.80
2024-04-18T07:55:37.689Z,5.10
2024-04-18T08:00:31.018Z,4.60
2024-04-18T08:03:00.990Z,5.90
2024-04-18T08:05:31.500Z,4.40
2024-04-18T08:08:01.905Z,4.40
2024-04-18T08:10:36.653Z,6.00
2024-04-18T08:13:15.156Z,3.80
2024-04-18T08:18:14.070Z,5.30
2024-04-18T08:23:07.341Z,4.50
2024-04-18T08:25:33.961Z,5.90
2024-04-18T08:28:00.504Z,4.70
2024-04-18T08:30:28.059Z,5.90
2024-04-18T08:32:54.633Z,6.30
2024-04-18T08:37:46.713Z,5.00
2024-04-18T08:40:13.590Z,5.20
2024-04-18T08:42:40.001Z,5.80
2024-04-18T08:45:09.596Z,6.60
2024-04-18T08:47:37.718Z,5.40
2024-04-18T08:50:06.852Z,4.70
2024-04-18T08:52:37.807Z,4.70
2024-04-18T08:55:05.759Z,4.70
2024-04-18T08:57:35.761Z,6.20
2024-04-18T09:00:05.428Z,4.80
2024-04-18T09:02:32.845Z,7.00
2024-04-18T09:05:00.594Z,3.90
2024-04-18T09:07:27.599Z,3.40
2024-04-18T09:10:02.974Z,4.50
2024-04-18T09:12:29.425Z,3.40
2024-04-18T09:14:56.688Z,4.90
2024-04-18T09:17:23.305Z,3.30
2024-04-18T09:19:52.146Z,3.20
2024-04-18T09:22:19.745Z,3.90
2024-04-18T09:24:46.880Z,3.40
2024-04-18T09:27:14.573Z,3.50
2024-04-18T09:29:40.827Z,5.50
2024-04-18T09:32:09.201Z,5.00
2024-04-18T09:34:38.047Z,5.10
2024-04-18T09:37:07.084Z,7.40
2024-04-18T09:39:38.402Z,4.00
2024-04-18T09:42:14.576Z,4.10
2024-04-18T09:44:45.774Z,3.60
2024-04-18T09:47:14.831Z,3.30
2024-04-18T09:49:42.740Z,3.40
2024-04-18T09:52:13.903Z,3.40
2024-04-18T09:54:41.513Z,3.00
2024-04-18T09:57:08.846Z,3.20
2024-04-18T09:59:35.774Z,5.80
2024-04-18T10:02:04.076Z,4.10
2024-04-18T10:04:32.234Z,4.00
2024-04-18T10:06:59.727Z,4.80
2024-04-18T10:09:28.510Z,5.50
2024-04-18T10:11:55.308Z,3.60
2024-04-18T10:14:23.237Z,3.70
2024-04-18T10:16:50.759Z,4.70
2024-04-18T10:19:22.894Z,6.10
2024-04-18T10:22:10.951Z,3.30
2024-04-18T10:24:43.765Z,5.00
2024-04-18T10:27:15.265Z,4.30
2024-04-18T10:29:43.286Z,3.50
2024-04-18T10:32:11.462Z,3.80
2024-04-18T10:34:42.850Z,5.90
2024-04-18T10:37:10.374Z,4.40
2024-04-18T10:39:39.777Z,5.70
2024-04-18T10:42:10.286Z,4.70
2024-04-18T10:44:37.434Z,5.20
2024-04-18T10:47:04.116Z,3.30
2024-04-18T10:49:30.458Z,2.30
2024-04-18T10:52:04.901Z,4.10
2024-04-18T10:54:31.641Z,3.40
2024-04-18T10:56:58.502Z,6.00
2024-04-18T10:59:24.984Z,4.00
2024-04-18T11:01:51.902Z,3.90
2024-04-18T11:04:18.335Z,3.50
2024-04-18T11:09:10.004Z,2.60
2024-04-18T11:11:39.565Z,3.40
2024-04-18T11:14:08.071Z,3.20
2024-04-18T11:16:35.981Z,3.20
2024-04-18T11:19:02.967Z,3.50
2024-04-18T11:21:31.057Z,3.10
2024-04-18T11:23:59.115Z,4.60
2024-04-18T11:26:27.522Z,4.70
2024-04-18T11:28:57.075Z,4.00
2024-04-18T11:31:23.501Z,4.50
2024-04-18T11:33:50.225Z,5.70
2024-04-18T11:36:17.535Z,5.00
2024-04-18T11:38:43.998Z,3.40
2024-04-18T11:43:36.524Z,3.80
2024-04-18T11:46:02.974Z,5.50
2024-04-18T11:48:29.906Z,4.30
2024-04-18T11:50:56.489Z,3.50
2024-04-18T11:53:23.581Z,4.30
2024-04-18T11:55:51.085Z,5.30
2024-04-18T11:58:27.921Z,6.80
2024-04-18T12:00:54.846Z,5.80
2024-04-18T12:03:37.935Z,3.80
2024-04-18T12:06:26.006Z,4.60
2024-04-18T12:08:55.336Z,4.10
2024-04-18T12:11:29.851Z,3.00
2024-04-18T12:14:12.721Z,3.10
2024-04-18T12:17:06.158Z,5.10
2024-04-18T12:19:42.696Z,3.80
2024-04-18T12:22:30.552Z,3.10
2024-04-18T12:25:12.803Z,1.70
2024-04-18T12:27:40.205Z,3.70
2024-04-18T12:33:16.548Z,2.00
2024-04-18T12:35:43.950Z,2.30
2024-04-18T12:38:10.817Z,3.40
2024-04-18T12:40:43.630Z,3.30
2024-04-18T12:43:10.482Z,3.00
2024-04-18T12:45:55.511Z,2.40
2024-04-18T12:48:46.044Z,5.70
2024-04-18T12:51:13.411Z,3.90
2024-04-18T12:53:43.514Z,3.00
2024-04-18T12:56:11.134Z,2.00
2024-04-18T12:58:40.780Z,1.80
2024-04-18T13:01:08.582Z,1.00
2024-04-18T13:03:38.532Z,1.20
2024-04-18T13:06:26.225Z,2.30
2024-04-18T13:08:53.647Z,1.10
2024-04-18T13:11:39.277Z,2.50
2024-04-18T13:14:06.588Z,5.00
2024-04-18T13:16:34.413Z,1.40
2024-04-18T13:19:10.526Z,1.20
2024-04-18T13:21:37.731Z,4.40
2024-04-18T13:24:04.810Z,3.10
2024-04-18T13:26:50.869Z,6.00
2024-04-18T13:29:18.038Z,4.60
2024-04-18T13:31:44.837Z,3.70
2024-04-18T13:34:21.105Z,3.90
2024-04-18T13:36:48.151Z,1.70
2024-04-18T13:39:15.084Z,3.90
2024-04-18T13:41:44.142Z,2.40
2024-04-18T13:44:17.008Z,3.50
2024-04-18T13:46:44.496Z,1.50
2024-04-18T13:49:11.514Z,2.90
2024-04-18T13:51:54.147Z,3.70
2024-04-18T13:54:36.038Z,3.90
2024-04-18T13:57:23.212Z,2.50
2024-04-18T14:00:12.587Z,5.50
2024-04-18T14:03:08.692Z,5.30
2024-04-18T14:05:55.849Z,2.40
2024-04-18T14:08:36.062Z,2.20
2024-04-18T14:11:21.716Z,2.80
2024-04-18T14:14:04.921Z,2.80
2024-04-18T14:16:49.616Z,1.90
2024-04-18T14:19:30.956Z,5.10
2024-04-18T14:22:04.085Z,2.80
2024-04-18T14:24:31.708Z,3.90
2024-04-18T14:26:58.598Z,4.10
2024-04-18T14:29:28.652Z,3.30
2024-04-18T14:32:01.001Z,3.90
2024-04-18T14:35:08.157Z,3.50
2024-04-18T14:37:35.135Z,4.10
2024-04-18T14:40:03.164Z,2.70
2024-04-18T14:42:30.279Z,3.30
2024-04-18T14:44:57.339Z,10.50
2024-04-18T14:47:24.237Z,2.90
2024-04-18T14:50:01.221Z,8.30
2024-04-18T14:52:33.905Z,21.00
2024-04-18T14:55:00.963Z,5.90
2024-04-18T14:57:34.213Z,2.50
2024-04-18T15:00:19.928Z,3.40
2024-04-18T15:02:47.285Z,6.90
2024-04-18T15:05:33.797Z,3.30
2024-04-18T15:08:01.305Z,2.30
2024-04-18T15:10:46.866Z,3.40
2024-04-18T15:13:13.932Z,6.00
2024-04-18T15:15:44.794Z,3.60
2024-04-18T15:18:13.118Z,3.40
2024-04-18T15:20:40.457Z,3.30
2024-04-18T15:23:10.779Z,2.20
2024-04-18T15:25:38.490Z,5.00
2024-04-18T15:28:06.079Z,4.50
2024-04-18T15:30:34.658Z,2.10
2024-04-18T15:33:21.192Z,4.80
2024-04-18T15:35:48.434Z,4.00
2024-04-18T15:38:15.785Z,8.20
2024-04-18T15:41:01.874Z,3.30
2024-04-18T15:43:36.689Z,4.70
2024-04-18T15:46:06.412Z,5.20
2024-04-18T15:48:34.890Z,3.60
2024-04-18T15:51:02.091Z,3.90
2024-04-18T15:53:29.039Z,4.10
2024-04-18T15:56:08.856Z,2.20
2024-04-18T15:58:54.535Z,4.60
2024-04-18T16:01:21.978Z,2.60
2024-04-18T16:04:07.924Z,2.80
2024-04-18T16:06:54.026Z,3.20
2024-04-18T16:09:39.796Z,2.40
2024-04-18T16:12:22.420Z,5.80
2024-04-18T16:15:01.459Z,2.40
2024-04-18T16:17:28.452Z,4.70
2024-04-18T16:20:12.120Z,2.40
2024-04-18T16:22:39.424Z,3.00
2024-04-18T16:25:25.347Z,5.70
2024-04-18T16:27:52.888Z,2.70
2024-04-18T16:30:20.757Z,2.70
2024-04-18T16:32:49.200Z,3.50
2024-04-18T16:35:16.808Z,2.80
2024-04-18T16:38:06.487Z,3.70
2024-04-18T16:40:50.313Z,5.00
2024-04-18T16:43:29.664Z,2.30
2024-04-18T16:45:59.469Z,2.60
2024-04-18T16:48:27.214Z,2.60
2024-04-18T16:50:54.284Z,3.60
2024-04-18T16:53:22.626Z,3.20
2024-04-18T16:55:49.810Z,3.40
2024-04-18T16:58:17.127Z,3.00
2024-04-18T17:00:56.029Z,2.70
2024-04-18T17:03:23.302Z,2.50
2024-04-18T17:06:03.987Z,4.10
2024-04-18T17:08:31.565Z,4.50
2024-04-18T17:10:58.729Z,3.90
2024-04-18T17:13:44.888Z,2.50
2024-04-18T17:16:11.894Z,3.90
2024-04-18T17:18:46.143Z,5.10
2024-04-18T17:21:13.715Z,5.60
2024-04-18T17:23:40.486Z,3.80
2024-04-18T17:26:07.263Z,8.90
2024-04-18T17:28:34.472Z,3.80
2024-04-18T17:31:01.610Z,3.10
2024-04-18T17:33:28.925Z,6.90
2024-04-18T17:35:59.004Z,3.80
2024-04-18T17:38:45.244Z,4.80
2024-04-18T17:41:29.940Z,3.30
2024-04-18T17:44:15.225Z,4.10
2024-04-18T17:46:54.142Z,4.40
2024-04-18T17:49:21.364Z,3.70
2024-04-18T17:51:48.432Z,4.20
2024-04-18T17:54:17.843Z,4.60
2024-04-18T17:56:45.215Z,4.40
2024-04-18T17:59:14.872Z,4.90
2024-04-18T18:01:42.908Z,7.70
2024-04-18T18:04:10.626Z,10.40
2024-04-18T18:06:38.481Z,6.10
2024-04-18T18:09:06.429Z,5.40
2024-04-18T18:11:34.440Z,8.00
2024-04-18T18:14:03.484Z,6.60
2024-04-18T18:16:49.458Z,7.30
2024-04-18T18:19:16.710Z,10.00
2024-04-18T18:21:56.105Z,8.20
2024-04-18T18:24:23.235Z,8.40
2024-04-18T18:26:50.462Z,10.40
2024-04-18T18:29:18.397Z,8.70
2024-04-18T18:32:04.657Z,7.80
2024-04-18T18:34:33.123Z,7.70
2024-04-18T18:36:59.898Z,8.30
2024-04-18T18:39:30.925Z,15.40
2024-04-18T18:41:58.096Z,11.40
2024-04-18T18:44:35.820Z,9.90
2024-04-18T18:47:03.039Z,11.50
2024-04-18T18:49:48.346Z,10.40
2024-04-18T18:52:15.556Z,10.60
2024-04-18T18:54:42.491Z,8.40
2024-04-18T18:57:09.908Z,10.10
2024-04-18T18:59:36.959Z,14.90
2024-04-18T19:02:04.019Z,10.80
2024-04-18T19:04:50.897Z,12.10
2024-04-18T19:07:18.023Z,11.30
2024-04-18T19:09:46.227Z,11.50
2024-04-18T19:12:13.714Z,13.10
2024-04-18T19:14:40.851Z,11.80
2024-04-18T19:17:08.076Z,13.30
2024-04-18T19:19:35.635Z,14.40
2024-04-18T19:22:04.316Z,16.10
2024-04-18T19:24:31.303Z,12.20
2024-04-18T19:26:58.545Z,12.00
2024-04-18T19:29:35.544Z,11.20
2024-04-18T19:32:08.013Z,12.80
2024-04-18T19:34:35.260Z,11.80
2024-04-18T19:37:04.911Z,9.70
2024-04-18T19:39:32.422Z,10.00
2024-04-18T19:41:59.569Z,9.00
2024-04-18T19:44:26.629Z,13.60
2024-04-18T19:46:53.413Z,10.80
2024-04-18T19:49:20.306Z,8.70
2024-04-18T19:51:56.151Z,8.90
2024-04-18T19:54:22.921Z,9.40
2024-04-18T19:56:49.653Z,9.00
2024-04-18T19:59:16.431Z,8.60
2024-04-18T20:01:43.210Z,7.20
2024-04-18T20:04:10.194Z,7.10
2024-04-18T20:06:37.149Z,7.70
2024-04-18T20:09:04.083Z,8.90
2024-04-18T20:11:31.320Z,6.50
2024-04-18T20:13:58.335Z,7.50
2024-04-18T20:16:25.586Z,6.60
2024-04-18T20:19:11.266Z,6.90
2024-04-18T20:21:38.233Z,5.40
2024-04-18T20:24:05.481Z,6.20
2024-04-18T20:26:34.222Z,6.70
2024-04-18T20:29:11.531Z,8.10
2024-04-18T20:31:38.481Z,4.90
2024-04-18T20:34:05.266Z,5.30
2024-04-18T20:36:33.011Z,5.40
2024-04-18T20:38:59.976Z,6.10
2024-04-18T20:41:26.714Z,5.10
2024-04-18T20:43:53.009Z,5.60
2024-04-18T20:48:49.471Z,5.20
2024-04-18T20:51:19.560Z,5.30
2024-04-18T20:53:45.911Z,5.30
2024-04-18T20:58:37.279Z,5.10
2024-04-18T21:03:28.869Z,4.70
2024-04-18T21:05:55.280Z,4.80
2024-04-18T21:10:46.563Z,6.50
2024-04-18T21:13:13.983Z,6.60
2024-04-18T21:15:40.434Z,6.20
2024-04-18T21:18:07.159Z,4.90
2024-04-18T21:20:33.760Z,6.80
2024-04-18T21:23:00.393Z,5.40
2024-04-18T21:25:26.947Z,8.70
2024-04-18T21:27:53.348Z,6.20
2024-04-18T21:32:45.080Z,7.10
2024-04-18T21:35:11.527Z,8.10
2024-04-18T21:37:37.886Z,7.40
2024-04-18T21:42:29.843Z,6.40
2024-04-18T21:44:56.270Z,8.00
2024-04-18T21:47:22.635Z,7.70
2024-04-18T21:49:49.513Z,5.90
2024-04-18T21:52:15.883Z,8.20
2024-04-18T21:54:42.294Z,6.80
2024-04-18T21:57:09.290Z,6.20
2024-04-18T21:59:36.865Z,8.70
2024-04-18T22:02:03.455Z,7.10
2024-04-18T22:04:30.157Z,6.00
2024-04-18T22:06:57.139Z,8.60
2024-04-18T22:09:23.615Z,8.20
2024-04-18T22:11:50.707Z,8.90
2024-04-18T22:14:17.043Z,10.50
2024-04-18T22:16:44.981Z,8.70
2024-04-18T22:19:12.110Z,9.40
2024-04-18T22:21:38.885Z,9.50
2024-04-18T22:24:06.158Z,12.10
2024-04-18T22:26:32.759Z,11.30
2024-04-18T22:28:59.300Z,9.50
2024-04-18T22:31:25.838Z,12.20
2024-04-18T22:33:52.523Z,9.00
2024-04-18T22:36:19.391Z,9.90
2024-04-18T22:38:45.795Z,9.10
2024-04-18T22:41:12.133Z,8.20
2024-04-18T22:43:38.520Z,7.80
2024-04-18T22:46:05.047Z,9.90
2024-04-18T22:48:32.152Z,10.20
2024-04-18T22:51:04.357Z,8.60
2024-04-18T22:53:30.742Z,10.40
2024-04-18T22:56:00.501Z,8.20
2024-04-18T22:58:28.111Z,9.50
2024-04-18T23:01:04.347Z,9.70
2024-04-18T23:03:30.896Z,9.70
2024-04-18T23:06:11.265Z,10.80
2024-04-18T23:08:40.744Z,9.70
2024-04-18T23:11:07.161Z,9.60
2024-04-18T23:13:34.335Z,8.70
2024-04-18T23:16:00.724Z,9.90
2024-04-18T23:18:28.199Z,9.60
2024-04-18T23:20:55.710Z,10.80
2024-04-18T23:23:32.409Z,9.40
2024-04-18T23:25:58.794Z,10.10
2024-04-18T23:28:25.220Z,10.60
2024-04-18T23:30:51.798Z,12.80
2024-04-18T23:33:18.193Z,10.20
2024-04-18T23:35:45.463Z,11.60
2024-04-18T23:38:11.973Z,11.80
2024-04-18T23:40:39.316Z,11.00
2024-04-18T23:43:06.269Z,10.80
2024-04-18T23:45:32.681Z,10.10
2024-04-18T23:47:59.245Z,10.50
2024-04-18T23:50:25.710Z,10.10
2024-04-18T23:52:52.418Z,11.40
2024-04-18T23:55:19.055Z,9.50
2024-04-18T23:57:45.498Z,11.80
